sensor_id;sensor_type;location;lat;lon;timestamp;pressure;altitude;pressure_sealevel;temperature;humidity
49979;BME280;35869;50.990;6.962;2022-10-17T00:02:05;101441.06;;;15.34;100.00
49979;BME280;35869;50.990;6.962;2022-10-17T00:07:06;101442.84;;;15.34;100.00
49979;BME280;35869;50.990;6.962;2022-10-17T00:12:06;101442.75;;;15.35;100.00
49979;BME280;35869;50.990;6.962;2022-10-17T00:17:06;101442.44;;;15.41;100.00
49979;BME280;35869;50.990;6.962;2022-10-17T00:22:06;101439.75;;;15.43;100.00
49979;BME280;35869;50.990;6.962;2022-10-17T00:27:07;101438.91;;;15.42;100.00
49979;BME280;35869;50.990;6.962;2022-10-17T00:32:07;101440.59;;;15.43;100.00
49979;BME280;35869;50.990;6.962;2022-10-17T00:37:07;101440.41;;;15.46;100.00
49979;BME280;35869;50.990;6.962;2022-10-17T00:42:11;101439.47;;;15.47;100.00
49979;BME280;35869;50.990;6.962;2022-10-17T00:47:15;101442.28;;;15.44;100.00
49979;BME280;35869;50.990;6.962;2022-10-17T00:52:25;101438.63;;;15.47;100.00
49979;BME280;35869;50.990;6.962;2022-10-17T00:57:29;101439.44;;;15.49;100.00
49979;BME280;35869;50.990;6.962;2022-10-17T01:02:30;101442.09;;;15.47;100.00
49979;BME280;35869;50.990;6.962;2022-10-17T01:07:31;101451.00;;;15.45;100.00
49979;BME280;35869;50.990;6.962;2022-10-17T01:12:49;101453.69;;;15.43;100.00
49979;BME280;35869;50.990;6.962;2022-10-17T01:29:46;101452.16;;;15.39;100.00
49979;BME280;35869;50.990;6.962;2022-10-17T01:35:17;101442.59;;;15.38;100.00
49979;BME280;35869;50.990;6.962;2022-10-17T01:50:40;101434.91;;;15.35;100.00
49979;BME280;35869;50.990;6.962;2022-10-17T01:55:44;101430.50;;;15.36;100.00
49979;BME280;35869;50.990;6.962;2022-10-17T02:00:46;101401.63;;;15.37;100.00
49979;BME280;35869;50.990;6.962;2022-10-17T02:05:48;101420.13;;;15.34;100.00
49979;BME280;35869;50.990;6.962;2022-10-17T02:10:59;101416.00;;;15.30;100.00
49979;BME280;35869;50.990;6.962;2022-10-17T02:16:34;101422.66;;;15.36;100.00
49979;BME280;35869;50.990;6.962;2022-10-17T02:26:49;101412.59;;;15.28;100.00
49979;BME280;35869;50.990;6.962;2022-10-17T02:37:06;101416.88;;;15.29;100.00
49979;BME280;35869;50.990;6.962;2022-10-17T02:42:09;101424.00;;;15.27;100.00
49979;BME280;35869;50.990;6.962;2022-10-17T02:47:21;101417.06;;;15.26;100.00
49979;BME280;35869;50.990;6.962;2022-10-17T02:52:36;101413.59;;;15.26;100.00
49979;BME280;35869;50.990;6.962;2022-10-17T03:02:46;101419.69;;;15.26;100.00
49979;BME280;35869;50.990;6.962;2022-10-17T03:07:47;101414.44;;;15.26;100.00
49979;BME280;35869;50.990;6.962;2022-10-17T03:12:47;101412.91;;;15.22;100.00
49979;BME280;35869;50.990;6.962;2022-10-17T03:17:47;101418.00;;;15.25;100.00
49979;BME280;35869;50.990;6.962;2022-10-17T03:22:48;101417.16;;;15.25;100.00
49979;BME280;35869;50.990;6.962;2022-10-17T03:27:48;101414.59;;;15.23;100.00
49979;BME280;35869;50.990;6.962;2022-10-17T03:32:48;101417.06;;;15.26;100.00
49979;BME280;35869;50.990;6.962;2022-10-17T03:37:48;101419.69;;;15.26;100.00
49979;BME280;35869;50.990;6.962;2022-10-17T03:42:49;101432.88;;;15.25;100.00
49979;BME280;35869;50.990;6.962;2022-10-17T03:47:49;101430.16;;;15.26;100.00
49979;BME280;35869;50.990;6.962;2022-10-17T03:52:49;101439.63;;;15.29;100.00
49979;BME280;35869;50.990;6.962;2022-10-17T03:57:49;101434.06;;;15.35;100.00
49979;BME280;35869;50.990;6.962;2022-10-17T04:02:49;101443.69;;;15.34;100.00
49979;BME280;35869;50.990;6.962;2022-10-17T04:07:50;101446.53;;;15.30;100.00
49979;BME280;35869;50.990;6.962;2022-10-17T04:12:50;101444.47;;;15.36;100.00
49979;BME280;35869;50.990;6.962;2022-10-17T04:17:50;101445.06;;;15.41;100.00
49979;BME280;35869;50.990;6.962;2022-10-17T04:22:50;101442.69;;;15.37;100.00
49979;BME280;35869;50.990;6.962;2022-10-17T04:27:51;101444.38;;;15.38;100.00
49979;BME280;35869;50.990;6.962;2022-10-17T04:32:51;101457.56;;;15.36;100.00
49979;BME280;35869;50.990;6.962;2022-10-17T04:37:51;101465.47;;;15.35;100.00
49979;BME280;35869;50.990;6.962;2022-10-17T04:42:51;101460.34;;;15.33;100.00
49979;BME280;35869;50.990;6.962;2022-10-17T04:47:51;101461.88;;;15.37;100.00
49979;BME280;35869;50.990;6.962;2022-10-17T04:52:52;101455.84;;;15.35;100.00
49979;BME280;35869;50.990;6.962;2022-10-17T04:57:52;101447.84;;;15.38;100.00
49979;BME280;35869;50.990;6.962;2022-10-17T05:02:52;101453.69;;;15.43;100.00
49979;BME280;35869;50.990;6.962;2022-10-17T05:07:53;101463.56;;;15.38;100.00
49979;BME280;35869;50.990;6.962;2022-10-17T05:12:53;101474.03;;;15.38;100.00
49979;BME280;35869;50.990;6.962;2022-10-17T05:17:56;101483.59;;;15.39;100.00
49979;BME280;35869;50.990;6.962;2022-10-17T05:22:58;101478.03;;;15.45;100.00
49979;BME280;35869;50.990;6.962;2022-10-17T05:27:58;101480.66;;;15.45;100.00
49979;BME280;35869;50.990;6.962;2022-10-17T05:32:58;101485.13;;;15.43;100.00
49979;BME280;35869;50.990;6.962;2022-10-17T05:37:59;101486.06;;;15.42;100.00
49979;BME280;35869;50.990;6.962;2022-10-17T05:42:59;101488.69;;;15.42;100.00
49979;BME280;35869;50.990;6.962;2022-10-17T05:47:59;101493.00;;;15.43;100.00
49979;BME280;35869;50.990;6.962;2022-10-17T05:53:00;101493.06;;;15.42;100.00
49979;BME280;35869;50.990;6.962;2022-10-17T05:58:00;101490.19;;;15.46;100.00
49979;BME280;35869;50.990;6.962;2022-10-17T06:03:01;101488.59;;;15.44;100.00
49979;BME280;35869;50.990;6.962;2022-10-17T06:08:01;101487.84;;;15.42;100.00
49979;BME280;35869;50.990;6.962;2022-10-17T06:13:01;101488.69;;;15.42;100.00
49979;BME280;35869;50.990;6.962;2022-10-17T06:18:01;101496.53;;;15.42;100.00
49979;BME280;35869;50.990;6.962;2022-10-17T06:23:02;101521.94;;;15.40;100.00
49979;BME280;35869;50.990;6.962;2022-10-17T06:28:02;101520.97;;;15.43;100.00
49979;BME280;35869;50.990;6.962;2022-10-17T06:33:02;101528.56;;;15.47;100.00
49979;BME280;35869;50.990;6.962;2022-10-17T06:38:02;101524.94;;;15.50;100.00
49979;BME280;35869;50.990;6.962;2022-10-17T06:43:03;101531.88;;;15.51;100.00
49979;BME280;35869;50.990;6.962;2022-10-17T06:48:03;101543.81;;;15.57;100.00
49979;BME280;35869;50.990;6.962;2022-10-17T06:53:03;101550.97;;;15.53;100.00
49979;BME280;35869;50.990;6.962;2022-10-17T06:58:03;101556.16;;;15.55;100.00
49979;BME280;35869;50.990;6.962;2022-10-17T07:03:04;101545.50;;;15.58;100.00
49979;BME280;35869;50.990;6.962;2022-10-17T07:08:04;101562.91;;;15.59;100.00
49979;BME280;35869;50.990;6.962;2022-10-17T07:13:04;101574.66;;;15.69;100.00
49979;BME280;35869;50.990;6.962;2022-10-17T07:18:05;101583.13;;;15.74;100.00
49979;BME280;35869;50.990;6.962;2022-10-17T07:23:05;101573.34;;;15.78;100.00
49979;BME280;35869;50.990;6.962;2022-10-17T07:28:05;101568.63;;;15.84;100.00
49979;BME280;35869;50.990;6.962;2022-10-17T07:33:06;101574.06;;;15.97;100.00
49979;BME280;35869;50.990;6.962;2022-10-17T07:38:06;101575.41;;;16.04;100.00
49979;BME280;35869;50.990;6.962;2022-10-17T07:43:07;101575.78;;;16.14;100.00
49979;BME280;35869;50.990;6.962;2022-10-17T07:48:07;101579.50;;;16.10;100.00
49979;BME280;35869;50.990;6.962;2022-10-17T07:53:07;101585.34;;;16.15;100.00
49979;BME280;35869;50.990;6.962;2022-10-17T07:58:08;101579.28;;;16.30;100.00
49979;BME280;35869;50.990;6.962;2022-10-17T08:03:09;101574.09;;;16.44;100.00
49979;BME280;35869;50.990;6.962;2022-10-17T08:08:09;101580.44;;;16.40;100.00
49979;BME280;35869;50.990;6.962;2022-10-17T08:13:10;101591.44;;;16.47;100.00
49979;BME280;35869;50.990;6.962;2022-10-17T08:18:10;101596.28;;;16.55;100.00
49979;BME280;35869;50.990;6.962;2022-10-17T08:23:10;101596.22;;;16.72;100.00
49979;BME280;35869;50.990;6.962;2022-10-17T08:28:10;101617.44;;;16.67;100.00
49979;BME280;35869;50.990;6.962;2022-10-17T08:33:11;101623.59;;;16.84;100.00
49979;BME280;35869;50.990;6.962;2022-10-17T08:38:11;101616.59;;;16.83;100.00
49979;BME280;35869;50.990;6.962;2022-10-17T08:48:19;101631.25;;;17.02;100.00
49979;BME280;35869;50.990;6.962;2022-10-17T08:53:41;101649.56;;;17.04;100.00
49979;BME280;35869;50.990;6.962;2022-10-17T08:58:42;101640.13;;;17.16;100.00
49979;BME280;35869;50.990;6.962;2022-10-17T09:09:06;101660.09;;;17.34;100.00
49979;BME280;35869;50.990;6.962;2022-10-17T09:14:26;101656.16;;;17.41;100.00
49979;BME280;35869;50.990;6.962;2022-10-17T09:19:31;101660.22;;;17.47;100.00
49979;BME280;35869;50.990;6.962;2022-10-17T09:24:50;101678.22;;;17.69;100.00
49979;BME280;35869;50.990;6.962;2022-10-17T09:35:21;101697.25;;;17.88;100.00
49979;BME280;35869;50.990;6.962;2022-10-17T09:40:33;101680.19;;;17.95;100.00
49979;BME280;35869;50.990;6.962;2022-10-17T09:45:40;101689.59;;;18.14;100.00
49979;BME280;35869;50.990;6.962;2022-10-17T09:50:44;101685.56;;;18.22;100.00
49979;BME280;35869;50.990;6.962;2022-10-17T09:55:47;101693.75;;;18.32;100.00
49979;BME280;35869;50.990;6.962;2022-10-17T10:00:49;101699.47;;;18.38;100.00
49979;BME280;35869;50.990;6.962;2022-10-17T10:06:16;101704.81;;;18.51;100.00
49979;BME280;35869;50.990;6.962;2022-10-17T10:11:18;101705.59;;;18.53;100.00
49979;BME280;35869;50.990;6.962;2022-10-17T10:16:22;101706.34;;;18.70;97.49
49979;BME280;35869;50.990;6.962;2022-10-17T10:21:28;101711.50;;;18.85;97.86
49979;BME280;35869;50.990;6.962;2022-10-17T10:26:33;101721.38;;;18.96;97.80
49979;BME280;35869;50.990;6.962;2022-10-17T10:31:36;101715.66;;;18.89;100.00
49979;BME280;35869;50.990;6.962;2022-10-17T10:36:47;101713.81;;;19.04;98.48
49979;BME280;35869;50.990;6.962;2022-10-17T10:41:49;101711.72;;;19.09;99.59
49979;BME280;35869;50.990;6.962;2022-10-17T10:47:26;101724.50;;;19.15;100.00
49979;BME280;35869;50.990;6.962;2022-10-17T10:52:41;101741.88;;;19.32;98.32
49979;BME280;35869;50.990;6.962;2022-10-17T10:57:46;101751.81;;;19.14;100.00
49979;BME280;35869;50.990;6.962;2022-10-17T11:02:57;101749.09;;;19.43;97.52
49979;BME280;35869;50.990;6.962;2022-10-17T11:08:05;101762.78;;;19.35;100.00
49979;BME280;35869;50.990;6.962;2022-10-17T11:13:13;101755.19;;;19.43;100.00
49979;BME280;35869;50.990;6.962;2022-10-17T11:18:32;101723.81;;;19.53;99.59
49979;BME280;35869;50.990;6.962;2022-10-17T11:23:40;101721.53;;;19.61;98.47
49979;BME280;35869;50.990;6.962;2022-10-17T11:28:42;101760.91;;;19.64;98.43
49979;BME280;35869;50.990;6.962;2022-10-17T11:33:55;101771.78;;;19.73;98.13
49979;BME280;35869;50.990;6.962;2022-10-17T11:39:01;101768.59;;;19.67;100.00
49979;BME280;35869;50.990;6.962;2022-10-17T11:49:12;101758.72;;;19.84;98.45
49979;BME280;35869;50.990;6.962;2022-10-17T11:54:27;101761.69;;;19.92;98.73
49979;BME280;35869;50.990;6.962;2022-10-17T12:10:15;101783.34;;;19.97;99.56
49979;BME280;35869;50.990;6.962;2022-10-17T12:25:31;101790.84;;;20.03;100.00
49979;BME280;35869;50.990;6.962;2022-10-17T12:30:33;101783.78;;;20.16;99.35
49979;BME280;35869;50.990;6.962;2022-10-17T12:35:35;101779.47;;;20.15;100.00
49979;BME280;35869;50.990;6.962;2022-10-17T12:56:13;101797.94;;;20.03;100.00
49979;BME280;35869;50.990;6.962;2022-10-17T13:01:23;101805.66;;;20.06;97.34
49979;BME280;35869;50.990;6.962;2022-10-17T13:06:27;101806.16;;;20.11;97.56
49979;BME280;35869;50.990;6.962;2022-10-17T13:11:31;101816.72;;;20.11;98.66
49979;BME280;35869;50.990;6.962;2022-10-17T13:16:36;101821.06;;;20.12;100.00
49979;BME280;35869;50.990;6.962;2022-10-17T13:21:37;101824.69;;;20.23;99.29
49979;BME280;35869;50.990;6.962;2022-10-17T13:26:44;101829.75;;;20.27;96.88
49979;BME280;35869;50.990;6.962;2022-10-17T13:31:52;101839.47;;;20.26;98.66
49979;BME280;35869;50.990;6.962;2022-10-17T13:36:55;101847.56;;;20.10;99.67
49979;BME280;35869;50.990;6.962;2022-10-17T13:41:56;101852.78;;;20.24;98.29
49979;BME280;35869;50.990;6.962;2022-10-17T13:46:57;101851.41;;;20.32;97.36
49979;BME280;35869;50.990;6.962;2022-10-17T13:51:58;101851.31;;;20.33;97.74
49979;BME280;35869;50.990;6.962;2022-10-17T13:57:00;101850.47;;;20.33;97.66
49979;BME280;35869;50.990;6.962;2022-10-17T14:02:01;101856.16;;;20.27;99.65
49979;BME280;35869;50.990;6.962;2022-10-17T14:07:01;101853.44;;;20.41;95.87
49979;BME280;35869;50.990;6.962;2022-10-17T14:17:23;101852.38;;;20.43;95.66
49979;BME280;35869;50.990;6.962;2022-10-17T14:22:26;101857.16;;;20.51;96.24
49979;BME280;35869;50.990;6.962;2022-10-17T14:27:36;101845.66;;;20.52;97.21
49979;BME280;35869;50.990;6.962;2022-10-17T14:32:37;101856.97;;;20.54;97.33
49979;BME280;35869;50.990;6.962;2022-10-17T14:37:43;101876.91;;;20.45;99.79
49979;BME280;35869;50.990;6.962;2022-10-17T14:42:44;101881.53;;;20.42;100.00
49979;BME280;35869;50.990;6.962;2022-10-17T14:47:48;101886.97;;;20.53;98.00
49979;BME280;35869;50.990;6.962;2022-10-17T14:58:23;101911.16;;;20.47;96.90
49979;BME280;35869;50.990;6.962;2022-10-17T15:03:24;101906.25;;;20.41;98.77
49979;BME280;35869;50.990;6.962;2022-10-17T15:08:24;101912.44;;;20.54;95.93
49979;BME280;35869;50.990;6.962;2022-10-17T15:13:24;101919.81;;;20.49;97.10
49979;BME280;35869;50.990;6.962;2022-10-17T15:18:24;101927.56;;;20.52;96.12
49979;BME280;35869;50.990;6.962;2022-10-17T15:23:25;101930.19;;;20.52;96.40
49979;BME280;35869;50.990;6.962;2022-10-17T15:28:25;101932.72;;;20.54;95.45
49979;BME280;35869;50.990;6.962;2022-10-17T15:33:25;101919.88;;;20.35;95.80
49979;BME280;35869;50.990;6.962;2022-10-17T15:38:25;101913.00;;;20.45;96.83
49979;BME280;35869;50.990;6.962;2022-10-17T15:43:26;101927.38;;;20.41;97.33
49979;BME280;35869;50.990;6.962;2022-10-17T15:48:28;101954.72;;;20.40;96.29
49979;BME280;35869;50.990;6.962;2022-10-17T15:53:29;101968.28;;;20.21;93.71
49979;BME280;35869;50.990;6.962;2022-10-17T15:58:34;101964.53;;;20.38;91.89
49979;BME280;35869;50.990;6.962;2022-10-17T16:03:35;101977.59;;;20.27;92.58
49979;BME280;35869;50.990;6.962;2022-10-17T16:08:36;101997.97;;;20.24;95.70
49979;BME280;35869;50.990;6.962;2022-10-17T16:13:36;102004.91;;;20.13;94.97
49979;BME280;35869;50.990;6.962;2022-10-17T16:18:37;102019.34;;;19.93;95.76
49979;BME280;35869;50.990;6.962;2022-10-17T16:23:37;102036.34;;;19.89;95.73
49979;BME280;35869;50.990;6.962;2022-10-17T16:28:37;102034.47;;;19.77;97.62
49979;BME280;35869;50.990;6.962;2022-10-17T16:33:37;102050.66;;;19.70;98.75
49979;BME280;35869;50.990;6.962;2022-10-17T16:38:38;102046.88;;;19.75;99.35
49979;BME280;35869;50.990;6.962;2022-10-17T16:43:38;102043.78;;;19.68;99.96
49979;BME280;35869;50.990;6.962;2022-10-17T16:48:38;102051.13;;;19.63;99.86
49979;BME280;35869;50.990;6.962;2022-10-17T16:53:39;102052.31;;;19.57;100.00
49979;BME280;35869;50.990;6.962;2022-10-17T16:58:41;102053.72;;;19.49;100.00
49979;BME280;35869;50.990;6.962;2022-10-17T17:03:43;102057.69;;;19.41;100.00
49979;BME280;35869;50.990;6.962;2022-10-17T17:08:43;102066.97;;;19.33;100.00
49979;BME280;35869;50.990;6.962;2022-10-17T17:13:44;102070.53;;;19.17;100.00
49979;BME280;35869;50.990;6.962;2022-10-17T17:18:44;102082.00;;;19.16;100.00
49979;BME280;35869;50.990;6.962;2022-10-17T17:23:44;102089.13;;;19.00;100.00
49979;BME280;35869;50.990;6.962;2022-10-17T17:28:45;102084.59;;;19.02;100.00
49979;BME280;35869;50.990;6.962;2022-10-17T17:33:45;102086.16;;;18.90;100.00
49979;BME280;35869;50.990;6.962;2022-10-17T17:38:47;102089.63;;;18.91;100.00
49979;BME280;35869;50.990;6.962;2022-10-17T17:43:48;102096.09;;;18.85;100.00
49979;BME280;35869;50.990;6.962;2022-10-17T17:48:50;102099.94;;;18.80;100.00
49979;BME280;35869;50.990;6.962;2022-10-17T17:53:50;102085.59;;;18.70;100.00
49979;BME280;35869;50.990;6.962;2022-10-17T17:58:59;102083.97;;;18.67;100.00
49979;BME280;35869;50.990;6.962;2022-10-17T18:03:59;102103.56;;;18.61;100.00
49979;BME280;35869;50.990;6.962;2022-10-17T18:09:00;102102.22;;;18.54;100.00
49979;BME280;35869;50.990;6.962;2022-10-17T18:14:09;102120.06;;;18.49;100.00
49979;BME280;35869;50.990;6.962;2022-10-17T18:19:10;102115.22;;;18.42;100.00
49979;BME280;35869;50.990;6.962;2022-10-17T18:24:10;102113.69;;;18.37;100.00
49979;BME280;35869;50.990;6.962;2022-10-17T18:29:10;102123.72;;;18.31;100.00
49979;BME280;35869;50.990;6.962;2022-10-17T18:34:11;102125.72;;;18.26;100.00
49979;BME280;35869;50.990;6.962;2022-10-17T18:39:11;102128.50;;;18.23;100.00
49979;BME280;35869;50.990;6.962;2022-10-17T18:44:11;102139.38;;;18.17;100.00
49979;BME280;35869;50.990;6.962;2022-10-17T18:49:14;102137.69;;;18.16;100.00
49979;BME280;35869;50.990;6.962;2022-10-17T18:54:17;102151.06;;;18.11;100.00
49979;BME280;35869;50.990;6.962;2022-10-17T18:59:19;102151.34;;;18.06;100.00
49979;BME280;35869;50.990;6.962;2022-10-17T19:04:19;102145.28;;;18.04;100.00
49979;BME280;35869;50.990;6.962;2022-10-17T19:09:19;102158.69;;;18.00;100.00
49979;BME280;35869;50.990;6.962;2022-10-17T19:14:20;102158.00;;;17.96;100.00
49979;BME280;35869;50.990;6.962;2022-10-17T19:19:22;102158.16;;;17.93;100.00
49979;BME280;35869;50.990;6.962;2022-10-17T19:24:24;102156.03;;;17.84;100.00
49979;BME280;35869;50.990;6.962;2022-10-17T19:29:27;102169.09;;;17.85;100.00
49979;BME280;35869;50.990;6.962;2022-10-17T19:34:27;102175.50;;;17.80;100.00
49979;BME280;35869;50.990;6.962;2022-10-17T19:39:27;102184.44;;;17.77;100.00
49979;BME280;35869;50.990;6.962;2022-10-17T19:44:28;102196.09;;;17.72;100.00
49979;BME280;35869;50.990;6.962;2022-10-17T19:49:28;102193.59;;;17.69;100.00
49979;BME280;35869;50.990;6.962;2022-10-17T19:54:28;102186.75;;;17.65;100.00
49979;BME280;35869;50.990;6.962;2022-10-17T19:59:28;102184.31;;;17.62;100.00
49979;BME280;35869;50.990;6.962;2022-10-17T20:04:29;102182.84;;;17.56;100.00
49979;BME280;35869;50.990;6.962;2022-10-17T20:09:29;102195.28;;;17.52;100.00
49979;BME280;35869;50.990;6.962;2022-10-17T20:14:29;102205.09;;;17.49;100.00
49979;BME280;35869;50.990;6.962;2022-10-17T20:19:31;102206.94;;;17.47;100.00
49979;BME280;35869;50.990;6.962;2022-10-17T20:24:31;102208.97;;;17.42;100.00
49979;BME280;35869;50.990;6.962;2022-10-17T20:29:31;102197.75;;;17.38;100.00
49979;BME280;35869;50.990;6.962;2022-10-17T20:34:32;102200.81;;;17.29;100.00
49979;BME280;35869;50.990;6.962;2022-10-17T20:39:32;102206.06;;;17.29;100.00
49979;BME280;35869;50.990;6.962;2022-10-17T20:44:32;102207.16;;;17.25;100.00
49979;BME280;35869;50.990;6.962;2022-10-17T20:49:32;102210.00;;;17.20;100.00
49979;BME280;35869;50.990;6.962;2022-10-17T20:54:32;102217.34;;;17.14;100.00
49979;BME280;35869;50.990;6.962;2022-10-17T20:59:33;102217.41;;;17.12;100.00
49979;BME280;35869;50.990;6.962;2022-10-17T21:04:33;102222.94;;;17.06;100.00
49979;BME280;35869;50.990;6.962;2022-10-17T21:09:34;102218.69;;;17.03;100.00
49979;BME280;35869;50.990;6.962;2022-10-17T21:14:34;102215.28;;;17.01;100.00
49979;BME280;35869;50.990;6.962;2022-10-17T21:19:34;102207.63;;;16.97;100.00
49979;BME280;35869;50.990;6.962;2022-10-17T21:24:34;102213.81;;;16.96;100.00
49979;BME280;35869;50.990;6.962;2022-10-17T21:29:35;102225.38;;;16.92;100.00
49979;BME280;35869;50.990;6.962;2022-10-17T21:34:35;102229.78;;;16.91;100.00
49979;BME280;35869;50.990;6.962;2022-10-17T21:39:35;102226.44;;;16.88;100.00
49979;BME280;35869;50.990;6.962;2022-10-17T21:44:36;102225.88;;;16.81;100.00
49979;BME280;35869;50.990;6.962;2022-10-17T21:49:36;102224.34;;;16.77;100.00
49979;BME280;35869;50.990;6.962;2022-10-17T21:54:36;102219.94;;;16.77;100.00
49979;BME280;35869;50.990;6.962;2022-10-17T21:59:36;102224.47;;;16.74;100.00
49979;BME280;35869;50.990;6.962;2022-10-17T22:04:36;102229.03;;;16.69;100.00
49979;BME280;35869;50.990;6.962;2022-10-17T22:09:37;102237.00;;;16.67;100.00
49979;BME280;35869;50.990;6.962;2022-10-17T22:14:37;102237.19;;;16.63;100.00
49979;BME280;35869;50.990;6.962;2022-10-17T22:19:37;102240.00;;;16.58;100.00
49979;BME280;35869;50.990;6.962;2022-10-17T22:24:37;102232.28;;;16.55;100.00
49979;BME280;35869;50.990;6.962;2022-10-17T22:29:38;102235.00;;;16.53;100.00
49979;BME280;35869;50.990;6.962;2022-10-17T22:34:38;102238.66;;;16.49;100.00
49979;BME280;35869;50.990;6.962;2022-10-17T22:39:38;102249.28;;;16.46;100.00
49979;BME280;35869;50.990;6.962;2022-10-17T22:44:38;102254.69;;;16.43;100.00
49979;BME280;35869;50.990;6.962;2022-10-17T22:49:39;102245.03;;;16.44;100.00
49979;BME280;35869;50.990;6.962;2022-10-17T22:54:39;102251.25;;;16.41;100.00
49979;BME280;35869;50.990;6.962;2022-10-17T22:59:39;102240.91;;;16.38;100.00
49979;BME280;35869;50.990;6.962;2022-10-17T23:04:39;102238.38;;;16.37;100.00
49979;BME280;35869;50.990;6.962;2022-10-17T23:09:40;102239.34;;;16.34;100.00
49979;BME280;35869;50.990;6.962;2022-10-17T23:14:40;102237.63;;;16.33;100.00
49979;BME280;35869;50.990;6.962;2022-10-17T23:19:40;102239.63;;;16.28;100.00
49979;BME280;35869;50.990;6.962;2022-10-17T23:24:41;102234.38;;;16.28;100.00
49979;BME280;35869;50.990;6.962;2022-10-17T23:29:41;102237.13;;;16.25;100.00
49979;BME280;35869;50.990;6.962;2022-10-17T23:34:41;102232.94;;;16.21;100.00
49979;BME280;35869;50.990;6.962;2022-10-17T23:39:41;102228.69;;;16.18;100.00
49979;BME280;35869;50.990;6.962;2022-10-17T23:44:42;102233.06;;;16.18;100.00
49979;BME280;35869;50.990;6.962;2022-10-17T23:49:42;102227.97;;;16.15;100.00
49979;BME280;35869;50.990;6.962;2022-10-17T23:54:42;102223.69;;;16.12;100.00
49979;BME280;35869;50.990;6.962;2022-10-17T23:59:42;102222.72;;;16.15;100.00
